sensor_id;sensor_type;location;lat;lon;timestamp;pressure;altitude;pressure_sealevel;temperature;humidity
43741;BME280;29352;48.708;9.290;2023-07-24T00:00:20;97200.53;;;11.89;73.08
43741;BME280;29352;48.708;9.290;2023-07-24T00:02:46;97194.25;;;11.67;73.27
43741;BME280;29352;48.708;9.290;2023-07-24T00:05:11;97191.47;;;11.90;72.21
43741;BME280;29352;48.708;9.290;2023-07-24T00:07:37;97177.94;;;12.30;71.20
43741;BME280;29352;48.708;9.290;2023-07-24T00:10:03;97187.00;;;12.29;70.09
43741;BME280;29352;48.708;9.290;2023-07-24T00:12:30;97158.34;;;12.64;68.73
43741;BME280;29352;48.708;9.290;2023-07-24T00:14:55;97145.38;;;12.77;68.07
43741;BME280;29352;48.708;9.290;2023-07-24T00:17:21;97165.97;;;12.94;67.45
43741;BME280;29352;48.708;9.290;2023-07-24T00:19:47;97168.41;;;12.78;68.43
43741;BME280;29352;48.708;9.290;2023-07-24T00:22:14;97156.34;;;12.76;68.22
43741;BME280;29352;48.708;9.290;2023-07-24T00:24:39;97149.41;;;12.97;67.65
43741;BME280;29352;48.708;9.290;2023-07-24T00:27:05;97167.13;;;13.03;67.42
43741;BME280;29352;48.708;9.290;2023-07-24T00:29:30;97182.09;;;12.99;68.37
43741;BME280;29352;48.708;9.290;2023-07-24T00:31:56;97177.00;;;12.59;69.35
43741;BME280;29352;48.708;9.290;2023-07-24T00:34:21;97163.16;;;11.77;73.97
43741;BME280;29352;48.708;9.290;2023-07-24T00:36:47;97167.06;;;11.87;72.10
43741;BME280;29352;48.708;9.290;2023-07-24T00:39:14;97159.75;;;11.82;72.37
43741;BME280;29352;48.708;9.290;2023-07-24T00:41:40;97170.75;;;12.31;71.13
43741;BME280;29352;48.708;9.290;2023-07-24T00:44:06;97170.94;;;12.46;71.25
43741;BME280;29352;48.708;9.290;2023-07-24T00:46:33;97152.59;;;12.94;68.33
43741;BME280;29352;48.708;9.290;2023-07-24T00:49:01;97160.34;;;12.73;68.85
43741;BME280;29352;48.708;9.290;2023-07-24T00:51:28;97159.41;;;12.63;69.73
43741;BME280;29352;48.708;9.290;2023-07-24T00:53:55;97149.31;;;12.92;69.45
43741;BME280;29352;48.708;9.290;2023-07-24T00:56:23;97150.94;;;12.32;70.49
43741;BME280;29352;48.708;9.290;2023-07-24T00:58:49;97144.97;;;12.25;70.05
43741;BME280;29352;48.708;9.290;2023-07-24T01:01:16;97152.41;;;11.89;72.95
43741;BME280;29352;48.708;9.290;2023-07-24T01:03:42;97144.34;;;11.39;73.45
43741;BME280;29352;48.708;9.290;2023-07-24T01:06:09;97140.31;;;10.96;74.99
43741;BME280;29352;48.708;9.290;2023-07-24T01:08:35;97129.19;;;10.87;75.13
43741;BME280;29352;48.708;9.290;2023-07-24T01:11:12;97113.63;;;11.12;74.16
43741;BME280;29352;48.708;9.290;2023-07-24T01:13:51;97113.31;;;11.09;74.44
43741;BME280;29352;48.708;9.290;2023-07-24T01:16:27;97116.28;;;10.96;73.82
43741;BME280;29352;48.708;9.290;2023-07-24T01:19:04;97105.41;;;11.43;72.78
43741;BME280;29352;48.708;9.290;2023-07-24T01:21:58;97099.97;;;11.38;72.07
43741;BME280;29352;48.708;9.290;2023-07-24T01:24:39;97104.78;;;11.24;73.15
43741;BME280;29352;48.708;9.290;2023-07-24T01:27:10;97101.22;;;10.89;73.35
43741;BME280;29352;48.708;9.290;2023-07-24T01:29:36;97109.19;;;10.61;74.55
43741;BME280;29352;48.708;9.290;2023-07-24T01:32:01;97097.06;;;10.82;74.48
43741;BME280;29352;48.708;9.290;2023-07-24T01:34:27;97099.44;;;11.24;72.74
43741;BME280;29352;48.708;9.290;2023-07-24T01:36:53;97103.66;;;11.65;71.22
43741;BME280;29352;48.708;9.290;2023-07-24T01:39:20;97102.53;;;10.75;73.31
43741;BME280;29352;48.708;9.290;2023-07-24T01:41:47;97099.97;;;11.38;71.96
43741;BME280;29352;48.708;9.290;2023-07-24T01:44:12;97106.47;;;11.30;71.86
43741;BME280;29352;48.708;9.290;2023-07-24T01:46:38;97106.72;;;10.71;74.52
43741;BME280;29352;48.708;9.290;2023-07-24T01:49:03;97117.44;;;10.88;74.37
43741;BME280;29352;48.708;9.290;2023-07-24T01:51:29;97111.56;;;11.14;72.86
43741;BME280;29352;48.708;9.290;2023-07-24T01:53:54;97117.13;;;10.84;74.96
43741;BME280;29352;48.708;9.290;2023-07-24T01:56:19;97115.03;;;11.15;74.84
43741;BME280;29352;48.708;9.290;2023-07-24T01:58:45;97112.53;;;10.68;75.05
43741;BME280;29352;48.708;9.290;2023-07-24T02:01:10;97110.09;;;10.78;74.83
43741;BME280;29352;48.708;9.290;2023-07-24T02:03:36;97103.69;;;10.79;74.20
43741;BME280;29352;48.708;9.290;2023-07-24T02:06:01;97099.53;;;11.00;73.33
43741;BME280;29352;48.708;9.290;2023-07-24T02:08:27;97087.63;;;10.91;74.12
43741;BME280;29352;48.708;9.290;2023-07-24T02:10:52;97094.06;;;11.07;72.84
43741;BME280;29352;48.708;9.290;2023-07-24T02:13:17;97073.84;;;10.82;73.69
43741;BME280;29352;48.708;9.290;2023-07-24T02:15:43;97083.75;;;10.70;73.70
43741;BME280;29352;48.708;9.290;2023-07-24T02:18:08;97078.81;;;10.90;73.63
43741;BME280;29352;48.708;9.290;2023-07-24T02:20:34;97079.19;;;11.11;72.10
43741;BME280;29352;48.708;9.290;2023-07-24T02:22:59;97071.28;;;11.33;72.27
43741;BME280;29352;48.708;9.290;2023-07-24T02:25:24;97071.78;;;11.01;74.11
43741;BME280;29352;48.708;9.290;2023-07-24T02:27:50;97069.69;;;10.75;74.49
43741;BME280;29352;48.708;9.290;2023-07-24T02:30:15;97072.66;;;10.38;76.19
43741;BME280;29352;48.708;9.290;2023-07-24T02:32:41;97085.41;;;10.48;76.21
43741;BME280;29352;48.708;9.290;2023-07-24T02:35:07;97079.84;;;10.61;75.69
43741;BME280;29352;48.708;9.290;2023-07-24T02:37:32;97070.47;;;10.35;76.05
43741;BME280;29352;48.708;9.290;2023-07-24T02:39:58;97059.72;;;10.18;76.21
43741;BME280;29352;48.708;9.290;2023-07-24T02:42:23;97059.63;;;9.89;75.50
43741;BME280;29352;48.708;9.290;2023-07-24T02:44:49;97051.03;;;9.87;76.68
43741;BME280;29352;48.708;9.290;2023-07-24T02:47:14;97051.34;;;9.56;78.38
43741;BME280;29352;48.708;9.290;2023-07-24T02:49:39;97056.94;;;9.78;77.84
43741;BME280;29352;48.708;9.290;2023-07-24T02:52:05;97051.03;;;9.64;77.26
43741;BME280;29352;48.708;9.290;2023-07-24T02:54:31;97048.31;;;9.29;78.89
43741;BME280;29352;48.708;9.290;2023-07-24T02:56:56;97038.03;;;9.44;78.75
43741;BME280;29352;48.708;9.290;2023-07-24T02:59:23;97030.09;;;9.79;77.24
43741;BME280;29352;48.708;9.290;2023-07-24T03:01:48;97031.66;;;9.57;77.38
43741;BME280;29352;48.708;9.290;2023-07-24T03:04:14;97032.16;;;9.54;77.99
43741;BME280;29352;48.708;9.290;2023-07-24T03:06:40;97028.28;;;9.38;79.67
43741;BME280;29352;48.708;9.290;2023-07-24T03:09:05;97026.69;;;9.37;79.25
43741;BME280;29352;48.708;9.290;2023-07-24T03:11:31;97033.28;;;9.46;79.16
43741;BME280;29352;48.708;9.290;2023-07-24T03:13:56;97037.19;;;9.32;79.06
43741;BME280;29352;48.708;9.290;2023-07-24T03:16:22;97035.78;;;9.29;78.53
43741;BME280;29352;48.708;9.290;2023-07-24T03:18:47;97028.50;;;9.13;81.52
43741;BME280;29352;48.708;9.290;2023-07-24T03:21:13;97029.25;;;9.01;79.50
43741;BME280;29352;48.708;9.290;2023-07-24T03:23:38;97034.75;;;9.18;79.09
43741;BME280;29352;48.708;9.290;2023-07-24T03:26:04;97029.66;;;9.17;79.64
43741;BME280;29352;48.708;9.290;2023-07-24T03:28:29;97021.91;;;9.27;78.74
43741;BME280;29352;48.708;9.290;2023-07-24T03:30:55;97042.25;;;9.10;79.72
43741;BME280;29352;48.708;9.290;2023-07-24T03:33:20;97034.91;;;8.93;80.04
43741;BME280;29352;48.708;9.290;2023-07-24T03:35:46;97027.44;;;9.14;80.33
43741;BME280;29352;48.708;9.290;2023-07-24T03:38:12;97036.22;;;9.03;80.00
43741;BME280;29352;48.708;9.290;2023-07-24T03:40:37;97024.34;;;8.57;81.64
43741;BME280;29352;48.708;9.290;2023-07-24T03:43:03;97024.78;;;8.72;82.17
43741;BME280;29352;48.708;9.290;2023-07-24T03:45:28;97018.81;;;8.88;80.32
43741;BME280;29352;48.708;9.290;2023-07-24T03:47:54;97020.81;;;8.93;79.73
43741;BME280;29352;48.708;9.290;2023-07-24T03:50:19;97033.16;;;8.87;80.83
43741;BME280;29352;48.708;9.290;2023-07-24T03:52:45;97033.28;;;8.44;83.28
43741;BME280;29352;48.708;9.290;2023-07-24T03:55:10;97018.34;;;8.61;81.59
43741;BME280;29352;48.708;9.290;2023-07-24T03:57:36;97028.44;;;9.01;80.79
43741;BME280;29352;48.708;9.290;2023-07-24T04:00:02;97029.75;;;9.22;79.94
43741;BME280;29352;48.708;9.290;2023-07-24T04:02:28;97023.22;;;8.64;82.79
43741;BME280;29352;48.708;9.290;2023-07-24T04:04:54;97033.84;;;8.83;83.45
43741;BME280;29352;48.708;9.290;2023-07-24T04:07:19;97032.72;;;9.44;80.44
43741;BME280;29352;48.708;9.290;2023-07-24T04:09:45;97032.28;;;9.82;79.20
43741;BME280;29352;48.708;9.290;2023-07-24T04:12:10;97022.91;;;10.55;77.40
43741;BME280;29352;48.708;9.290;2023-07-24T04:14:36;97019.84;;;10.63;76.14
43741;BME280;29352;48.708;9.290;2023-07-24T04:17:01;97008.75;;;10.83;75.57
43741;BME280;29352;48.708;9.290;2023-07-24T04:19:27;97005.00;;;10.84;75.83
43741;BME280;29352;48.708;9.290;2023-07-24T04:21:52;96999.84;;;10.95;74.08
43741;BME280;29352;48.708;9.290;2023-07-24T04:24:18;96996.19;;;11.46;73.92
43741;BME280;29352;48.708;9.290;2023-07-24T04:26:43;96993.81;;;12.05;72.48
43741;BME280;29352;48.708;9.290;2023-07-24T04:29:08;96990.81;;;12.02;72.98
43741;BME280;29352;48.708;9.290;2023-07-24T04:31:34;96989.69;;;11.98;73.72
43741;BME280;29352;48.708;9.290;2023-07-24T04:33:59;96966.94;;;11.73;73.89
43741;BME280;29352;48.708;9.290;2023-07-24T04:36:25;96967.16;;;12.11;72.88
43741;BME280;29352;48.708;9.290;2023-07-24T04:38:50;96961.09;;;11.76;73.42
43741;BME280;29352;48.708;9.290;2023-07-24T04:41:16;96965.75;;;11.47;74.50
43741;BME280;29352;48.708;9.290;2023-07-24T04:43:41;96965.31;;;11.72;74.34
43741;BME280;29352;48.708;9.290;2023-07-24T04:46:07;96968.94;;;12.49;72.54
43741;BME280;29352;48.708;9.290;2023-07-24T04:48:32;96967.78;;;12.67;71.64
43741;BME280;29352;48.708;9.290;2023-07-24T04:50:58;96964.75;;;12.31;72.38
43741;BME280;29352;48.708;9.290;2023-07-24T04:53:23;96974.00;;;12.45;72.27
43741;BME280;29352;48.708;9.290;2023-07-24T04:55:49;96964.59;;;12.43;72.43
43741;BME280;29352;48.708;9.290;2023-07-24T04:58:14;96972.13;;;12.73;70.57
43741;BME280;29352;48.708;9.290;2023-07-24T05:00:41;96969.75;;;12.76;70.48
43741;BME280;29352;48.708;9.290;2023-07-24T05:03:06;96963.16;;;12.89;70.12
43741;BME280;29352;48.708;9.290;2023-07-24T05:05:39;96960.72;;;12.55;70.36
43741;BME280;29352;48.708;9.290;2023-07-24T05:08:04;96962.75;;;12.97;68.51
43741;BME280;29352;48.708;9.290;2023-07-24T05:10:37;96969.03;;;12.32;70.96
43741;BME280;29352;48.708;9.290;2023-07-24T05:13:03;96977.91;;;11.55;76.20
43741;BME280;29352;48.708;9.290;2023-07-24T05:15:28;96984.66;;;12.01;73.52
43741;BME280;29352;48.708;9.290;2023-07-24T05:17:54;96982.72;;;12.36;72.28
43741;BME280;29352;48.708;9.290;2023-07-24T05:20:19;96971.53;;;11.78;73.44
43741;BME280;29352;48.708;9.290;2023-07-24T05:22:45;96980.28;;;11.23;74.15
43741;BME280;29352;48.708;9.290;2023-07-24T05:25:10;96986.13;;;11.03;74.70
43741;BME280;29352;48.708;9.290;2023-07-24T05:27:36;96988.91;;;11.42;74.76
43741;BME280;29352;48.708;9.290;2023-07-24T05:30:03;96983.38;;;11.65;74.28
43741;BME280;29352;48.708;9.290;2023-07-24T05:32:29;96977.38;;;12.36;71.76
43741;BME280;29352;48.708;9.290;2023-07-24T05:34:54;96982.19;;;12.88;70.29
43741;BME280;29352;48.708;9.290;2023-07-24T05:37:20;96984.47;;;13.01;69.83
43741;BME280;29352;48.708;9.290;2023-07-24T05:39:45;96993.66;;;13.10;69.29
43741;BME280;29352;48.708;9.290;2023-07-24T05:42:11;96993.09;;;13.40;68.08
43741;BME280;29352;48.708;9.290;2023-07-24T05:44:36;96995.00;;;13.45;67.56
43741;BME280;29352;48.708;9.290;2023-07-24T05:47:02;97007.06;;;13.42;68.74
43741;BME280;29352;48.708;9.290;2023-07-24T05:49:28;97015.97;;;12.67;72.76
43741;BME280;29352;48.708;9.290;2023-07-24T05:51:53;97018.56;;;12.62;73.99
43741;BME280;29352;48.708;9.290;2023-07-24T05:54:19;97024.44;;;12.86;72.94
43741;BME280;29352;48.708;9.290;2023-07-24T05:56:45;97030.22;;;12.94;71.81
43741;BME280;29352;48.708;9.290;2023-07-24T05:59:10;97028.28;;;12.90;73.13
43741;BME280;29352;48.708;9.290;2023-07-24T06:01:35;97032.91;;;12.72;72.78
43741;BME280;29352;48.708;9.290;2023-07-24T06:04:01;97033.78;;;12.56;73.40
43741;BME280;29352;48.708;9.290;2023-07-24T06:06:26;97033.69;;;12.95;72.36
43741;BME280;29352;48.708;9.290;2023-07-24T06:08:53;97027.69;;;12.88;72.58
43741;BME280;29352;48.708;9.290;2023-07-24T06:11:18;97030.84;;;12.58;74.43
43741;BME280;29352;48.708;9.290;2023-07-24T06:13:44;97033.44;;;12.96;72.89
43741;BME280;29352;48.708;9.290;2023-07-24T06:16:09;97028.81;;;12.92;73.28
43741;BME280;29352;48.708;9.290;2023-07-24T06:18:35;97034.00;;;12.98;73.81
43741;BME280;29352;48.708;9.290;2023-07-24T06:21:01;97025.78;;;13.10;73.81
43741;BME280;29352;48.708;9.290;2023-07-24T06:23:26;97022.69;;;13.23;71.73
43741;BME280;29352;48.708;9.290;2023-07-24T06:25:51;97020.06;;;12.74;74.50
43741;BME280;29352;48.708;9.290;2023-07-24T06:28:18;97019.00;;;12.97;73.75
43741;BME280;29352;48.708;9.290;2023-07-24T06:30:43;97007.59;;;13.12;73.14
43741;BME280;29352;48.708;9.290;2023-07-24T06:33:09;97002.84;;;13.19;72.67
43741;BME280;29352;48.708;9.290;2023-07-24T06:35:35;96988.16;;;13.27;68.93
43741;BME280;29352;48.708;9.290;2023-07-24T06:38:00;96973.25;;;13.41;70.72
43741;BME280;29352;48.708;9.290;2023-07-24T06:40:26;96977.53;;;13.37;71.59
43741;BME280;29352;48.708;9.290;2023-07-24T06:42:51;96980.50;;;13.04;72.17
43741;BME280;29352;48.708;9.290;2023-07-24T06:45:18;96976.28;;;13.50;69.17
43741;BME280;29352;48.708;9.290;2023-07-24T06:47:43;96982.88;;;13.37;71.33
43741;BME280;29352;48.708;9.290;2023-07-24T06:50:09;96975.50;;;13.55;72.30
43741;BME280;29352;48.708;9.290;2023-07-24T06:52:34;96981.25;;;13.68;72.87
43741;BME280;29352;48.708;9.290;2023-07-24T06:55:00;96991.22;;;13.73;71.95
43741;BME280;29352;48.708;9.290;2023-07-24T06:57:25;96987.19;;;13.70;75.12
43741;BME280;29352;48.708;9.290;2023-07-24T06:59:51;96991.22;;;13.09;77.67
43741;BME280;29352;48.708;9.290;2023-07-24T07:02:16;96980.72;;;13.02;77.18
43741;BME280;29352;48.708;9.290;2023-07-24T07:04:42;96985.91;;;13.46;76.17
43741;BME280;29352;48.708;9.290;2023-07-24T07:07:07;96974.53;;;13.66;73.71
43741;BME280;29352;48.708;9.290;2023-07-24T07:09:33;96965.06;;;13.53;71.98
43741;BME280;29352;48.708;9.290;2023-07-24T07:11:58;96951.81;;;13.79;70.42
43741;BME280;29352;48.708;9.290;2023-07-24T07:14:24;96977.09;;;13.88;70.75
43741;BME280;29352;48.708;9.290;2023-07-24T07:16:49;97000.13;;;13.14;72.03
43741;BME280;29352;48.708;9.290;2023-07-24T07:19:15;97002.03;;;12.92;73.17
43741;BME280;29352;48.708;9.290;2023-07-24T07:21:41;97005.78;;;12.91;75.32
43741;BME280;29352;48.708;9.290;2023-07-24T07:24:06;97000.88;;;12.83;75.39
43741;BME280;29352;48.708;9.290;2023-07-24T07:26:31;97010.84;;;13.52;71.07
43741;BME280;29352;48.708;9.290;2023-07-24T07:28:57;97021.66;;;13.94;69.29
43741;BME280;29352;48.708;9.290;2023-07-24T07:31:23;97012.13;;;14.18;68.79
43741;BME280;29352;48.708;9.290;2023-07-24T07:33:48;97022.03;;;14.18;67.97
43741;BME280;29352;48.708;9.290;2023-07-24T07:36:14;97017.06;;;14.42;67.31
43741;BME280;29352;48.708;9.290;2023-07-24T07:38:39;97023.84;;;14.65;67.12
43741;BME280;29352;48.708;9.290;2023-07-24T07:41:06;97024.78;;;15.11;66.06
43741;BME280;29352;48.708;9.290;2023-07-24T07:43:32;97022.91;;;15.17;66.05
43741;BME280;29352;48.708;9.290;2023-07-24T07:45:57;97030.16;;;15.17;65.78
43741;BME280;29352;48.708;9.290;2023-07-24T07:48:24;97040.13;;;15.57;64.81
43741;BME280;29352;48.708;9.290;2023-07-24T07:50:51;97032.84;;;15.83;64.03
43741;BME280;29352;48.708;9.290;2023-07-24T07:53:16;97027.97;;;16.00;63.81
43741;BME280;29352;48.708;9.290;2023-07-24T07:55:42;97026.84;;;16.12;63.63
43741;BME280;29352;48.708;9.290;2023-07-24T07:58:07;97033.03;;;16.17;64.11
43741;BME280;29352;48.708;9.290;2023-07-24T08:00:33;97044.84;;;16.37;63.93
43741;BME280;29352;48.708;9.290;2023-07-24T08:02:59;97051.00;;;16.42;64.33
43741;BME280;29352;48.708;9.290;2023-07-24T08:05:24;97046.53;;;15.97;65.41
43741;BME280;29352;48.708;9.290;2023-07-24T08:07:50;97065.63;;;16.16;64.58
43741;BME280;29352;48.708;9.290;2023-07-24T08:10:15;97057.56;;;16.05;65.39
43741;BME280;29352;48.708;9.290;2023-07-24T08:12:42;97063.78;;;15.85;66.21
43741;BME280;29352;48.708;9.290;2023-07-24T08:15:08;97056.75;;;16.10;66.90
43741;BME280;29352;48.708;9.290;2023-07-24T08:17:34;97053.84;;;15.81;68.23
43741;BME280;29352;48.708;9.290;2023-07-24T08:19:59;97043.88;;;15.66;68.63
43741;BME280;29352;48.708;9.290;2023-07-24T08:22:25;97041.47;;;15.54;71.09
43741;BME280;29352;48.708;9.290;2023-07-24T08:24:50;97042.50;;;15.18;73.18
43741;BME280;29352;48.708;9.290;2023-07-24T08:27:17;97044.00;;;14.67;73.94
43741;BME280;29352;48.708;9.290;2023-07-24T08:29:42;97031.59;;;14.51;73.81
43741;BME280;29352;48.708;9.290;2023-07-24T08:32:08;97024.19;;;14.21;75.06
43741;BME280;29352;48.708;9.290;2023-07-24T08:34:33;97036.72;;;14.05;75.21
43741;BME280;29352;48.708;9.290;2023-07-24T08:36:59;97031.38;;;14.10;76.65
43741;BME280;29352;48.708;9.290;2023-07-24T08:39:24;97019.53;;;14.01;76.58
43741;BME280;29352;48.708;9.290;2023-07-24T08:41:49;97014.75;;;14.08;78.30
43741;BME280;29352;48.708;9.290;2023-07-24T08:44:15;96988.81;;;14.29;77.46
43741;BME280;29352;48.708;9.290;2023-07-24T08:46:42;97013.31;;;13.90;79.45
43741;BME280;29352;48.708;9.290;2023-07-24T08:49:11;96999.63;;;13.92;80.10
43741;BME280;29352;48.708;9.290;2023-07-24T08:51:40;97005.88;;;13.65;81.51
43741;BME280;29352;48.708;9.290;2023-07-24T08:54:08;96977.66;;;13.95;81.27
43741;BME280;29352;48.708;9.290;2023-07-24T08:56:36;96967.44;;;13.49;80.78
43741;BME280;29352;48.708;9.290;2023-07-24T08:59:02;96957.94;;;13.32;81.38
43741;BME280;29352;48.708;9.290;2023-07-24T09:01:28;96959.41;;;13.92;83.21
43741;BME280;29352;48.708;9.290;2023-07-24T09:03:54;96972.78;;;13.87;81.77
43741;BME280;29352;48.708;9.290;2023-07-24T09:06:19;96974.00;;;14.16;82.96
43741;BME280;29352;48.708;9.290;2023-07-24T09:08:45;96962.25;;;14.38;84.94
43741;BME280;29352;48.708;9.290;2023-07-24T09:11:13;96969.63;;;14.00;84.16
43741;BME280;29352;48.708;9.290;2023-07-24T09:13:42;96971.91;;;14.29;82.31
43741;BME280;29352;48.708;9.290;2023-07-24T09:16:08;96967.34;;;14.29;79.75
43741;BME280;29352;48.708;9.290;2023-07-24T09:18:41;96959.81;;;14.26;81.37
43741;BME280;29352;48.708;9.290;2023-07-24T09:21:09;96949.59;;;14.23;81.69
43741;BME280;29352;48.708;9.290;2023-07-24T09:23:37;96947.47;;;14.30;78.66
43741;BME280;29352;48.708;9.290;2023-07-24T09:26:06;96947.06;;;14.79;81.32
43741;BME280;29352;48.708;9.290;2023-07-24T09:28:33;96942.50;;;14.80;78.60
43741;BME280;29352;48.708;9.290;2023-07-24T09:31:00;96940.41;;;15.28;75.50
43741;BME280;29352;48.708;9.290;2023-07-24T09:33:37;96951.13;;;15.07;76.79
43741;BME280;29352;48.708;9.290;2023-07-24T09:36:06;96946.03;;;15.31;77.80
43741;BME280;29352;48.708;9.290;2023-07-24T09:38:34;96938.78;;;15.17;75.33
43741;BME280;29352;48.708;9.290;2023-07-24T09:41:01;96937.44;;;15.29;75.81
43741;BME280;29352;48.708;9.290;2023-07-24T09:43:29;96939.31;;;15.34;75.04
43741;BME280;29352;48.708;9.290;2023-07-24T09:45:56;96927.50;;;15.30;75.31
43741;BME280;29352;48.708;9.290;2023-07-24T09:48:26;96947.94;;;15.26;76.68
43741;BME280;29352;48.708;9.290;2023-07-24T09:50:54;96949.00;;;15.04;78.61
43741;BME280;29352;48.708;9.290;2023-07-24T09:53:32;96958.13;;;15.13;77.72
43741;BME280;29352;48.708;9.290;2023-07-24T09:56:09;96971.03;;;15.17;77.41
43741;BME280;29352;48.708;9.290;2023-07-24T09:58:38;96979.06;;;15.01;78.76
43741;BME280;29352;48.708;9.290;2023-07-24T10:01:08;96987.16;;;15.17;76.34
43741;BME280;29352;48.708;9.290;2023-07-24T10:03:38;96993.03;;;14.93;75.05
43741;BME280;29352;48.708;9.290;2023-07-24T10:06:04;97005.38;;;14.89;76.61
43741;BME280;29352;48.708;9.290;2023-07-24T10:08:30;97014.75;;;14.76;77.49
43741;BME280;29352;48.708;9.290;2023-07-24T10:10:58;97016.06;;;14.63;78.40
43741;BME280;29352;48.708;9.290;2023-07-24T10:13:26;97030.56;;;14.73;77.43
43741;BME280;29352;48.708;9.290;2023-07-24T10:15:53;97040.16;;;14.43;78.40
43741;BME280;29352;48.708;9.290;2023-07-24T10:18:26;97038.28;;;14.49;79.62
43741;BME280;29352;48.708;9.290;2023-07-24T10:21:04;97027.28;;;14.50;79.35
43741;BME280;29352;48.708;9.290;2023-07-24T10:23:34;97022.28;;;14.84;76.61
43741;BME280;29352;48.708;9.290;2023-07-24T10:26:08;97031.66;;;14.66;77.44
43741;BME280;29352;48.708;9.290;2023-07-24T10:28:36;97035.25;;;15.13;76.76
43741;BME280;29352;48.708;9.290;2023-07-24T10:31:05;97046.94;;;14.61;81.90
43741;BME280;29352;48.708;9.290;2023-07-24T10:33:44;97041.16;;;14.37;85.79
43741;BME280;29352;48.708;9.290;2023-07-24T10:36:10;97044.53;;;14.12;82.27
43741;BME280;29352;48.708;9.290;2023-07-24T10:38:40;97058.63;;;13.92;87.42
43741;BME280;29352;48.708;9.290;2023-07-24T10:41:09;97073.34;;;13.89;86.53
43741;BME280;29352;48.708;9.290;2023-07-24T10:43:41;97078.22;;;13.92;86.80
43741;BME280;29352;48.708;9.290;2023-07-24T10:46:07;97090.94;;;13.43;89.90
43741;BME280;29352;48.708;9.290;2023-07-24T10:48:34;97093.72;;;12.99;93.67
43741;BME280;29352;48.708;9.290;2023-07-24T10:51:08;97095.34;;;13.00;92.48
43741;BME280;29352;48.708;9.290;2023-07-24T10:53:38;97100.06;;;12.71;89.10
43741;BME280;29352;48.708;9.290;2023-07-24T10:56:06;97106.00;;;12.73;88.50
43741;BME280;29352;48.708;9.290;2023-07-24T10:58:32;97108.22;;;12.59;90.40
43741;BME280;29352;48.708;9.290;2023-07-24T11:01:04;97103.84;;;12.75;90.90
43741;BME280;29352;48.708;9.290;2023-07-24T11:03:31;97112.75;;;12.37;91.03
43741;BME280;29352;48.708;9.290;2023-07-24T11:05:58;97119.06;;;12.30;91.52
43741;BME280;29352;48.708;9.290;2023-07-24T11:08:24;97108.16;;;12.15;91.82
43741;BME280;29352;48.708;9.290;2023-07-24T11:10:54;97105.25;;;12.00;92.95
43741;BME280;29352;48.708;9.290;2023-07-24T11:13:24;97095.38;;;12.00;91.94
43741;BME280;29352;48.708;9.290;2023-07-24T11:15:53;97057.50;;;12.08;92.64
43741;BME280;29352;48.708;9.290;2023-07-24T11:18:21;97059.47;;;11.96;93.58
43741;BME280;29352;48.708;9.290;2023-07-24T11:20:50;97076.50;;;11.90;93.01
43741;BME280;29352;48.708;9.290;2023-07-24T11:23:17;97066.28;;;11.87;93.60
43741;BME280;29352;48.708;9.290;2023-07-24T11:25:44;97071.97;;;11.91;94.74
43741;BME280;29352;48.708;9.290;2023-07-24T11:28:12;97050.00;;;11.89;93.86
43741;BME280;29352;48.708;9.290;2023-07-24T11:30:40;97032.84;;;11.68;94.78
43741;BME280;29352;48.708;9.290;2023-07-24T11:33:10;97011.69;;;11.32;95.84
43741;BME280;29352;48.708;9.290;2023-07-24T11:35:37;96981.59;;;11.54;94.57
43741;BME280;29352;48.708;9.290;2023-07-24T11:38:06;96952.41;;;11.30;95.93
43741;BME280;29352;48.708;9.290;2023-07-24T11:40:37;96937.75;;;10.82;97.81
43741;BME280;29352;48.708;9.290;2023-07-24T11:43:05;96903.63;;;11.57;91.21
43741;BME280;29352;48.708;9.290;2023-07-24T11:45:31;96896.81;;;11.66;93.52
43741;BME280;29352;48.708;9.290;2023-07-24T11:48:09;96925.66;;;12.57;93.90
43741;BME280;29352;48.708;9.290;2023-07-24T11:50:51;96946.59;;;13.19;90.68
43741;BME280;29352;48.708;9.290;2023-07-24T11:53:23;96943.56;;;13.48;86.74
43741;BME280;29352;48.708;9.290;2023-07-24T11:55:51;96938.06;;;13.27;88.20
43741;BME280;29352;48.708;9.290;2023-07-24T11:58:19;96942.19;;;13.83;85.47
43741;BME280;29352;48.708;9.290;2023-07-24T12:00:47;96951.47;;;14.23;85.70
43741;BME280;29352;48.708;9.290;2023-07-24T12:03:14;96954.41;;;13.63;85.19
43741;BME280;29352;48.708;9.290;2023-07-24T12:05:44;96965.09;;;13.21;86.78
43741;BME280;29352;48.708;9.290;2023-07-24T12:08:10;96978.66;;;13.46;90.91
43741;BME280;29352;48.708;9.290;2023-07-24T12:10:40;96956.16;;;13.85;85.50
43741;BME280;29352;48.708;9.290;2023-07-24T12:13:06;96956.50;;;14.04;87.48
43741;BME280;29352;48.708;9.290;2023-07-24T12:15:33;96961.84;;;14.87;86.45
43741;BME280;29352;48.708;9.290;2023-07-24T12:18:03;96964.34;;;15.19;82.57
43741;BME280;29352;48.708;9.290;2023-07-24T12:20:29;96959.94;;;15.69;82.34
43741;BME280;29352;48.708;9.290;2023-07-24T12:22:54;96965.03;;;16.01;82.21
43741;BME280;29352;48.708;9.290;2023-07-24T12:25:20;96966.84;;;16.16;78.52
43741;BME280;29352;48.708;9.290;2023-07-24T12:27:47;96952.47;;;16.41;79.06
43741;BME280;29352;48.708;9.290;2023-07-24T12:30:13;96956.97;;;16.56;78.09
43741;BME280;29352;48.708;9.290;2023-07-24T12:32:39;96954.88;;;16.48;79.18
43741;BME280;29352;48.708;9.290;2023-07-24T12:35:05;96955.06;;;17.35;75.39
43741;BME280;29352;48.708;9.290;2023-07-24T12:37:32;96943.44;;;18.17;73.44
43741;BME280;29352;48.708;9.290;2023-07-24T12:39:57;96946.53;;;18.29;72.43
43741;BME280;29352;48.708;9.290;2023-07-24T12:42:23;96941.69;;;18.26;70.50
43741;BME280;29352;48.708;9.290;2023-07-24T12:44:48;96943.31;;;18.27;71.00
43741;BME280;29352;48.708;9.290;2023-07-24T12:47:14;96927.50;;;17.96;71.21
43741;BME280;29352;48.708;9.290;2023-07-24T12:49:40;96915.22;;;18.09;69.05
43741;BME280;29352;48.708;9.290;2023-07-24T12:52:06;96937.69;;;18.24;69.04
43741;BME280;29352;48.708;9.290;2023-07-24T12:54:33;96921.91;;;18.55;68.50
43741;BME280;29352;48.708;9.290;2023-07-24T12:57:00;96911.91;;;18.12;69.70
43741;BME280;29352;48.708;9.290;2023-07-24T12:59:27;96909.91;;;17.75;69.14